Time;durP1;ratioP1;P1;durP2;ratioP2;P2;SDS_P1;SDS_P2;PMS_P1;PMS_P2;Temp;Humidity;BMP_temperature;BMP_pressure;BME280_temperature;BME280_humidity;BME280_pressure;Samples;Min_cycle;Max_cycle;Signal;HPM_P1;HPM_P2
2021/09/03 00:00:19;;;;;;;;;;;16.20;85.20;;;;;;5106995;28;19914;-71
2021/09/03 00:02:45;;;;;;;;;;;16.20;84.30;;;;;;5107061;28;19915;-71
2021/09/03 00:05:15;;;;;;;;;;;16.20;84.00;;;;;;5106535;28;19908;-71
2021/09/03 00:07:41;;;;;;;;;;;16.20;84.90;;;;;;5106554;28;19908;-71
2021/09/03 00:10:07;;;;;;;;;;;16.20;85.50;;;;;;5088243;28;19922;-71
2021/09/03 00:12:33;;;;;;;;;;;16.20;85.50;;;;;;5106814;28;20415;-71
2021/09/03 00:14:58;;;;;;;;;;;16.20;86.00;;;;;;5107051;28;19969;-71
2021/09/03 00:17:24;;;;;;;;;;;16.20;86.40;;;;;;5105600;28;20430;-69
2021/09/03 00:19:49;;;;;;;;;;;16.10;86.90;;;;;;5107103;28;19915;-71
2021/09/03 00:22:17;;;;;;;;;;;16.10;87.00;;;;;;5106911;28;20666;-70
2021/09/03 00:24:42;;;;;;;;;;;16.10;87.00;;;;;;5106980;28;19908;-71
2021/09/03 00:27:08;;;;;;;;;;;16.10;87.40;;;;;;5106148;28;19920;-71
2021/09/03 00:29:33;;;;;;;;;;;16.00;87.70;;;;;;5106666;28;19927;-71
2021/09/03 00:31:59;;;;;;;;;;;16.10;88.80;;;;;;5087120;28;20332;-71
2021/09/03 00:34:24;;;;;;;;;;;16.10;88.60;;;;;;5106230;28;19908;-71
2021/09/03 00:36:50;;;;;;;;;;;16.00;88.30;;;;;;5106481;28;19903;-71
2021/09/03 00:39:15;;;;;;;;;;;16.00;88.20;;;;;;5106292;28;19919;-71
2021/09/03 00:41:41;;;;;;;;;;;16.00;89.60;;;;;;5106551;28;20026;-71
2021/09/03 00:44:06;;;;;;;;;;;16.00;89.60;;;;;;5106473;28;19916;-72
2021/09/03 00:46:32;;;;;;;;;;;15.90;89.80;;;;;;5104785;28;20780;-70
2021/09/03 00:48:58;;;;;;;;;;;15.90;90.10;;;;;;5087555;28;19915;-71
2021/09/03 00:51:24;;;;;;;;;;;16.00;90.20;;;;;;5106136;28;20104;-71
2021/09/03 00:53:49;;;;;;;;;;;15.90;90.20;;;;;;5106193;28;19907;-71
2021/09/03 00:56:15;;;;;;;;;;;15.90;90.10;;;;;;5106126;28;19908;-70
2021/09/03 00:58:40;;;;;;;;;;;15.90;90.00;;;;;;5106402;28;19907;-71
2021/09/03 01:01:06;;;;;;;;;;;15.90;90.20;;;;;;5105719;28;19915;-71
2021/09/03 01:03:31;;;;;;;;;;;15.90;90.30;;;;;;5105958;28;19976;-71
2021/09/03 01:06:02;;;;;;;;;;;15.80;90.70;;;;;;5106467;28;19939;-70
2021/09/03 01:08:28;;;;;;;;;;;15.80;90.50;;;;;;5106465;28;19999;-70
2021/09/03 01:10:53;;;;;;;;;;;15.80;90.60;;;;;;5106603;28;19916;-72
2021/09/03 01:13:19;;;;;;;;;;;15.80;90.60;;;;;;5104641;28;19914;-72
2021/09/03 01:15:44;;;;;;;;;;;15.80;90.80;;;;;;5105715;28;20002;-69
2021/09/03 01:18:10;;;;;;;;;;;15.80;90.90;;;;;;5105719;28;20380;-71
2021/09/03 01:20:35;;;;;;;;;;;15.80;90.80;;;;;;5087546;28;19907;-71
2021/09/03 01:23:01;;;;;;;;;;;15.80;90.80;;;;;;5088796;28;19915;-72
2021/09/03 01:25:26;;;;;;;;;;;15.80;90.90;;;;;;5088542;28;19962;-70
2021/09/03 01:27:52;;;;;;;;;;;15.80;91.10;;;;;;5088604;28;20501;-71
2021/09/03 01:30:17;;;;;;;;;;;15.80;91.00;;;;;;5088459;28;19938;-71
2021/09/03 01:32:43;;;;;;;;;;;15.80;91.10;;;;;;5088600;28;19947;-78
2021/09/03 01:35:09;;;;;;;;;;;15.80;91.20;;;;;;5097387;28;20395;-72
2021/09/03 01:37:35;;;;;;;;;;;15.70;91.20;;;;;;5106602;28;19960;-72
2021/09/03 01:40:00;;;;;;;;;;;15.70;91.10;;;;;;5108743;28;20367;-73
2021/09/03 01:42:26;;;;;;;;;;;15.70;91.20;;;;;;5100600;28;19908;-72
2021/09/03 01:44:52;;;;;;;;;;;15.70;91.40;;;;;;5088459;28;19908;-70
2021/09/03 01:47:17;;;;;;;;;;;15.70;91.30;;;;;;5075985;28;20018;-70
2021/09/03 01:49:43;;;;;;;;;;;15.70;91.50;;;;;;5105377;28;19919;-70
2021/09/03 01:52:08;;;;;;;;;;;15.70;91.40;;;;;;5089216;28;19923;-69
2021/09/03 01:54:34;;;;;;;;;;;15.60;91.50;;;;;;5101148;28;20569;-69
2021/09/03 01:56:59;;;;;;;;;;;15.60;91.50;;;;;;5088720;28;19916;-69
2021/09/03 01:59:25;;;;;;;;;;;15.60;91.70;;;;;;5106498;28;20038;-69
2021/09/03 02:01:51;;;;;;;;;;;15.60;91.70;;;;;;5111453;28;19923;-68
2021/09/03 02:04:16;;;;;;;;;;;15.60;91.70;;;;;;5111292;28;19915;-69
2021/09/03 02:06:42;;;;;;;;;;;15.60;91.60;;;;;;5111193;28;19915;-69
2021/09/03 02:09:07;;;;;;;;;;;15.60;91.90;;;;;;5097315;28;19911;-69
2021/09/03 02:11:34;;;;;;;;;;;15.60;92.10;;;;;;5111144;28;19927;-68
2021/09/03 02:14:00;;;;;;;;;;;15.60;92.90;;;;;;5111037;28;19916;-69
2021/09/03 02:16:25;;;;;;;;;;;15.60;92.20;;;;;;5110857;28;19922;-68
2021/09/03 02:18:51;;;;;;;;;;;15.60;92.50;;;;;;5111034;28;19912;-68
2021/09/03 02:21:16;;;;;;;;;;;15.60;92.50;;;;;;5110214;28;20307;-68
2021/09/03 02:23:42;;;;;;;;;;;15.60;92.50;;;;;;5110738;28;19916;-68
2021/09/03 02:26:07;;;;;;;;;;;15.50;92.60;;;;;;5093452;28;20425;-69
2021/09/03 02:28:33;;;;;;;;;;;15.50;92.10;;;;;;5110670;28;20536;-69
2021/09/03 02:30:58;;;;;;;;;;;15.50;92.40;;;;;;5110536;28;19920;-68
2021/09/03 02:33:24;;;;;;;;;;;15.50;92.40;;;;;;5108628;28;19916;-68
2021/09/03 02:35:49;;;;;;;;;;;15.50;92.60;;;;;;5110467;28;19911;-68
2021/09/03 02:38:15;;;;;;;;;;;15.50;92.80;;;;;;5093329;28;20442;-69
2021/09/03 02:40:41;;;;;;;;;;;15.50;93.00;;;;;;5091197;28;20311;-69
2021/09/03 02:43:06;;;;;;;;;;;15.50;93.10;;;;;;5110203;28;20339;-70
2021/09/03 02:45:32;;;;;;;;;;;15.50;93.00;;;;;;5111152;28;19998;-70
2021/09/03 02:47:57;;;;;;;;;;;15.50;93.00;;;;;;5111429;28;20287;-69
2021/09/03 02:50:23;;;;;;;;;;;15.50;93.10;;;;;;5111280;28;20268;-70
2021/09/03 02:52:48;;;;;;;;;;;15.50;93.40;;;;;;5111386;28;19919;-70
2021/09/03 02:55:14;;;;;;;;;;;15.40;93.60;;;;;;5111065;28;20338;-70
2021/09/03 02:57:39;;;;;;;;;;;15.40;93.50;;;;;;5111162;28;20002;-70
2021/09/03 03:00:07;;;;;;;;;;;15.40;93.00;;;;;;5111182;28;19914;-70
2021/09/03 03:02:32;;;;;;;;;;;15.40;93.50;;;;;;5111024;28;19908;-69
2021/09/03 03:04:58;;;;;;;;;;;15.40;93.70;;;;;;5092722;28;19915;-69
2021/09/03 03:07:23;;;;;;;;;;;15.40;93.60;;;;;;5110968;28;20399;-69
2021/09/03 03:09:49;;;;;;;;;;;15.30;93.60;;;;;;5110182;28;19912;-69
2021/09/03 03:12:18;;;;;;;;;;;15.40;93.50;;;;;;5110845;28;20014;-69
2021/09/03 03:14:44;;;;;;;;;;;15.40;93.30;;;;;;5110778;28;20337;-70
2021/09/03 03:17:09;;;;;;;;;;;15.40;93.30;;;;;;5110577;28;19908;-70
2021/09/03 03:19:35;;;;;;;;;;;15.40;93.50;;;;;;5110651;28;19908;-71
2021/09/03 03:22:00;;;;;;;;;;;15.40;93.70;;;;;;5110915;28;19915;-70
2021/09/03 03:24:26;;;;;;;;;;;15.40;93.70;;;;;;5110518;28;19914;-70
2021/09/03 03:26:51;;;;;;;;;;;15.30;94.10;;;;;;5110259;28;19925;-68
2021/09/03 03:29:17;;;;;;;;;;;15.30;94.30;;;;;;5092164;28;19915;-69
2021/09/03 03:31:42;;;;;;;;;;;15.30;94.30;;;;;;5110547;28;19953;-70
2021/09/03 03:34:10;;;;;;;;;;;15.30;94.20;;;;;;5110556;28;20406;-70
2021/09/03 03:36:35;;;;;;;;;;;15.20;94.00;;;;;;5092024;28;19995;-69
2021/09/03 03:39:01;;;;;;;;;;;15.20;94.10;;;;;;5110410;28;20349;-70
2021/09/03 03:41:27;;;;;;;;;;;15.20;93.70;;;;;;5110327;28;19936;-69
2021/09/03 03:43:52;;;;;;;;;;;15.20;93.70;;;;;;5092036;28;19953;-70
2021/09/03 03:46:18;;;;;;;;;;;15.20;94.20;;;;;;5110292;28;19903;-70
2021/09/03 03:48:44;;;;;;;;;;;15.20;94.10;;;;;;5110076;28;19967;-70
2021/09/03 03:51:09;;;;;;;;;;;15.20;94.30;;;;;;5109954;28;19955;-70
2021/09/03 03:53:35;;;;;;;;;;;15.20;94.20;;;;;;5110136;28;20367;-70
2021/09/03 03:56:00;;;;;;;;;;;15.20;94.20;;;;;;5109909;28;20367;-70
2021/09/03 03:58:26;;;;;;;;;;;15.10;94.50;;;;;;5110004;28;19908;-70
2021/09/03 04:00:51;;;;;;;;;;;15.20;94.60;;;;;;5110024;28;19915;-70
2021/09/03 04:03:17;;;;;;;;;;;15.20;94.40;;;;;;5109666;28;19912;-69
2021/09/03 04:05:42;;;;;;;;;;;15.20;94.80;;;;;;5091567;28;19907;-70
2021/09/03 04:08:08;;;;;;;;;;;15.10;94.70;;;;;;5109929;28;19949;-70
2021/09/03 04:10:33;;;;;;;;;;;15.20;94.70;;;;;;5109709;28;19989;-70
2021/09/03 04:12:59;;;;;;;;;;;15.20;94.80;;;;;;5109667;28;20295;-70
2021/09/03 04:15:25;;;;;;;;;;;15.10;95.30;;;;;;5109503;28;20402;-70
2021/09/03 04:17:50;;;;;;;;;;;15.20;95.10;;;;;;5109609;28;19915;-70
2021/09/03 04:20:16;;;;;;;;;;;15.20;95.20;;;;;;5108923;28;19916;-70
2021/09/03 04:22:41;;;;;;;;;;;15.20;95.40;;;;;;5109579;28;20653;-69
2021/09/03 04:25:08;;;;;;;;;;;15.20;95.40;;;;;;5109498;28;19907;-69
2021/09/03 04:27:37;;;;;;;;;;;15.20;95.40;;;;;;5109253;28;19924;-69
2021/09/03 04:30:04;;;;;;;;;;;15.20;95.20;;;;;;5109475;28;20034;-69
2021/09/03 04:32:29;;;;;;;;;;;15.20;94.90;;;;;;5109433;28;20399;-70
2021/09/03 04:34:55;;;;;;;;;;;15.20;94.40;;;;;;5091402;28;20486;-70
2021/09/03 04:37:21;;;;;;;;;;;15.20;94.30;;;;;;5109342;28;19956;-70
2021/09/03 04:39:46;;;;;;;;;;;15.20;94.00;;;;;;5091196;28;19968;-70
2021/09/03 04:42:12;;;;;;;;;;;15.30;94.20;;;;;;5109376;28;19998;-69
2021/09/03 04:44:38;;;;;;;;;;;15.30;94.40;;;;;;5109246;28;20534;-70
2021/09/03 04:47:03;;;;;;;;;;;15.40;94.40;;;;;;5109112;28;20269;-69
2021/09/03 04:49:29;;;;;;;;;;;15.40;93.90;;;;;;5091076;28;19912;-70
2021/09/03 04:51:54;;;;;;;;;;;15.40;94.00;;;;;;5109319;28;19916;-69
2021/09/03 04:54:20;;;;;;;;;;;15.50;93.90;;;;;;5109218;28;19908;-70
2021/09/03 04:56:45;;;;;;;;;;;15.60;93.70;;;;;;5109191;28;20005;-69
2021/09/03 04:59:11;;;;;;;;;;;15.60;93.90;;;;;;5108968;28;20364;-72
2021/09/03 05:01:36;;;;;;;;;;;15.60;93.80;;;;;;5109015;28;19947;-72
2021/09/03 05:04:02;;;;;;;;;;;15.70;93.90;;;;;;5109213;28;19904;-72
2021/09/03 05:06:27;;;;;;;;;;;15.70;93.80;;;;;;5109230;28;19904;-70
2021/09/03 05:08:53;;;;;;;;;;;15.70;93.60;;;;;;5109331;28;19904;-70
2021/09/03 05:11:18;;;;;;;;;;;15.80;93.50;;;;;;5108939;28;19911;-69
2021/09/03 05:13:44;;;;;;;;;;;15.90;93.40;;;;;;5108959;28;19910;-70
2021/09/03 05:16:09;;;;;;;;;;;15.90;93.10;;;;;;5108703;28;19908;-69
2021/09/03 05:18:35;;;;;;;;;;;16.00;93.50;;;;;;5108976;28;20422;-70
2021/09/03 05:21:01;;;;;;;;;;;16.10;93.20;;;;;;5108925;28;19914;-70
2021/09/03 05:23:26;;;;;;;;;;;16.20;92.70;;;;;;5109019;28;20424;-69
2021/09/03 05:25:52;;;;;;;;;;;16.40;92.50;;;;;;5108800;28;19919;-70
2021/09/03 05:28:18;;;;;;;;;;;16.40;92.40;;;;;;5090689;28;20295;-69
2021/09/03 05:30:43;;;;;;;;;;;16.50;92.20;;;;;;5108848;28;20298;-70
2021/09/03 05:33:09;;;;;;;;;;;16.60;92.00;;;;;;5112270;28;19912;-70
2021/09/03 05:35:34;;;;;;;;;;;16.80;92.40;;;;;;5094535;28;19907;-69
2021/09/03 05:38:04;;;;;;;;;;;16.90;92.70;;;;;;5112595;28;20402;-69
2021/09/03 05:40:30;;;;;;;;;;;17.10;92.50;;;;;;5112641;28;20002;-70
2021/09/03 05:42:55;;;;;;;;;;;17.30;92.60;;;;;;5112498;28;20006;-70
2021/09/03 05:45:21;;;;;;;;;;;17.50;92.10;;;;;;5094046;28;20360;-70
2021/09/03 05:47:46;;;;;;;;;;;17.80;92.00;;;;;;5112449;28;20556;-70
2021/09/03 05:50:13;;;;;;;;;;;17.90;90.50;;;;;;5112426;28;19907;-70
2021/09/03 05:52:39;;;;;;;;;;;18.10;90.70;;;;;;5112500;28;20471;-70
2021/09/03 05:55:05;;;;;;;;;;;18.30;90.20;;;;;;5093943;28;19974;-70
2021/09/03 05:57:30;;;;;;;;;;;18.50;89.90;;;;;;5112413;28;19903;-70
2021/09/03 05:59:56;;;;;;;;;;;18.60;87.80;;;;;;5112296;28;19950;-70
2021/09/03 06:02:21;;;;;;;;;;;19.00;87.10;;;;;;5112247;28;19908;-69
2021/09/03 06:04:47;;;;;;;;;;;19.40;85.00;;;;;;5094290;28;20002;-70
2021/09/03 06:07:12;;;;;;;;;;;19.60;81.80;;;;;;5112116;28;20398;-70
2021/09/03 06:09:38;;;;;;;;;;;19.80;78.40;;;;;;5111976;28;19908;-70
2021/09/03 06:12:04;;;;;;;;;;;20.20;75.80;;;;;;5112053;28;19919;-70
2021/09/03 06:14:29;;;;;;;;;;;20.50;73.40;;;;;;5111869;28;19911;-70
2021/09/03 06:16:55;;;;;;;;;;;20.80;68.60;;;;;;5111759;28;20011;-70
2021/09/03 06:19:21;;;;;;;;;;;21.10;68.60;;;;;;5111002;28;19918;-70
2021/09/03 06:21:47;;;;;;;;;;;21.30;63.70;;;;;;5111798;28;19941;-71
2021/09/03 06:24:31;;;;;;;;;;;21.50;63.50;;;;;;5111758;28;20525;-71
2021/09/03 06:26:58;;;;;;;;;;;21.70;60.60;;;;;;5111460;28;19926;-70
2021/09/03 06:32:11;;;;;;;;;;;22.40;59.70;;;;;;5111717;28;19916;-71
2021/09/03 06:34:38;;;;;;;;;;;22.90;57.70;;;;;;5111442;28;19991;-71
2021/09/03 06:37:04;;;;;;;;;;;23.50;55.60;;;;;;5111458;28;19928;-71
2021/09/03 06:39:29;;;;;;;;;;;23.80;55.30;;;;;;5111400;28;20368;-70
2021/09/03 06:41:55;;;;;;;;;;;24.50;53.60;;;;;;5111500;28;19929;-71
2021/09/03 06:44:20;;;;;;;;;;;25.00;51.40;;;;;;5110704;28;20410;-71
2021/09/03 06:46:46;;;;;;;;;;;25.80;48.80;;;;;;5111232;28;19949;-70
2021/09/03 06:49:11;;;;;;;;;;;26.00;46.40;;;;;;5111075;28;19949;-70
2021/09/03 06:51:37;;;;;;;;;;;26.10;46.00;;;;;;5111300;28;19955;-71
2021/09/03 06:54:02;;;;;;;;;;;25.90;45.40;;;;;;5111317;28;20675;-70
2021/09/03 06:56:28;;;;;;;;;;;25.50;46.60;;;;;;5111022;28;19964;-71
2021/09/03 06:58:53;;;;;;;;;;;25.30;47.00;;;;;;5111355;28;19907;-71
2021/09/03 07:01:19;;;;;;;;;;;25.70;46.70;;;;;;5110847;28;19915;-71
2021/09/03 07:03:45;;;;;;;;;;;25.90;46.70;;;;;;5110886;28;19907;-71
2021/09/03 07:06:11;;;;;;;;;;;26.50;45.60;;;;;;5110947;28;19908;-70
2021/09/03 07:08:36;;;;;;;;;;;27.30;44.00;;;;;;5110886;28;19903;-71
2021/09/03 07:11:02;;;;;;;;;;;27.50;43.40;;;;;;5110648;28;19915;-71
2021/09/03 07:13:27;;;;;;;;;;;27.90;42.60;;;;;;5110910;28;19908;-71
2021/09/03 07:15:53;;;;;;;;;;;28.20;42.10;;;;;;5110623;28;19904;-70
2021/09/03 07:18:18;;;;;;;;;;;28.30;41.30;;;;;;5110756;28;20696;-70
2021/09/03 07:20:44;;;;;;;;;;;28.40;41.30;;;;;;5110684;28;20280;-69
2021/09/03 07:23:09;;;;;;;;;;;28.80;40.80;;;;;;5110468;28;19904;-70
2021/09/03 07:25:35;;;;;;;;;;;29.20;39.50;;;;;;5110351;28;20284;-71
2021/09/03 07:28:01;;;;;;;;;;;29.60;38.40;;;;;;5110519;28;20479;-70
2021/09/03 07:30:26;;;;;;;;;;;30.00;37.70;;;;;;5092359;28;19919;-71
2021/09/03 07:32:52;;;;;;;;;;;30.40;36.70;;;;;;5110509;28;19914;-71
2021/09/03 07:35:17;;;;;;;;;;;30.30;36.50;;;;;;5110207;28;20714;-70
2021/09/03 07:37:43;;;;;;;;;;;30.20;36.60;;;;;;5110384;28;19904;-72
2021/09/03 07:40:09;;;;;;;;;;;30.20;37.60;;;;;;5110243;28;19938;-71
2021/09/03 07:42:34;;;;;;;;;;;30.80;36.80;;;;;;5110100;28;20676;-70
2021/09/03 07:45:00;;;;;;;;;;;31.00;35.90;;;;;;5092017;28;19908;-71
2021/09/03 07:47:26;;;;;;;;;;;31.20;35.60;;;;;;5109972;28;19951;-72
2021/09/03 07:49:52;;;;;;;;;;;31.20;35.90;;;;;;5091650;28;20045;-71
2021/09/03 07:52:17;;;;;;;;;;;31.60;35.10;;;;;;5091711;28;19915;-71
2021/09/03 07:54:44;;;;;;;;;;;31.70;34.90;;;;;;5109779;28;19907;-71
2021/09/03 07:57:10;;;;;;;;;;;32.10;34.60;;;;;;5091797;28;19911;-71
2021/09/03 07:59:36;;;;;;;;;;;32.40;33.00;;;;;;5109946;28;19904;-71
2021/09/03 08:02:01;;;;;;;;;;;32.60;32.00;;;;;;5109850;28;19908;-71
2021/09/03 08:04:27;;;;;;;;;;;32.20;32.00;;;;;;5109758;28;19912;-71
2021/09/03 08:06:52;;;;;;;;;;;32.10;32.60;;;;;;5109882;28;19904;-71
2021/09/03 08:09:18;;;;;;;;;;;32.10;33.70;;;;;;5109489;28;19956;-71
2021/09/03 08:11:43;;;;;;;;;;;32.20;33.50;;;;;;5109693;28;20283;-71
2021/09/03 08:14:09;;;;;;;;;;;32.40;32.50;;;;;;5109755;28;20372;-70
2021/09/03 08:16:34;;;;;;;;;;;32.70;32.40;;;;;;5109643;28;19934;-71
2021/09/03 08:19:00;;;;;;;;;;;32.80;32.10;;;;;;5091550;28;19903;-71
2021/09/03 08:21:25;;;;;;;;;;;32.80;31.90;;;;;;5109442;28;20383;-71
2021/09/03 08:23:51;;;;;;;;;;;32.90;32.10;;;;;;5109558;28;20407;-71
2021/09/03 08:26:16;;;;;;;;;;;32.90;32.00;;;;;;5109262;28;19912;-71
2021/09/03 08:28:42;;;;;;;;;;;32.90;32.20;;;;;;5109470;28;20376;-71
2021/09/03 08:31:07;;;;;;;;;;;32.50;31.50;;;;;;5109281;28;20000;-71
2021/09/03 08:33:33;;;;;;;;;;;32.30;32.20;;;;;;5109413;28;19908;-72
2021/09/03 08:35:59;;;;;;;;;;;32.50;32.00;;;;;;5109270;28;19994;-71
2021/09/03 08:38:24;;;;;;;;;;;32.50;33.00;;;;;;5109249;28;20300;-71
2021/09/03 08:40:50;;;;;;;;;;;32.70;32.90;;;;;;5091369;28;19953;-71
2021/09/03 08:43:19;;;;;;;;;;;32.70;32.00;;;;;;5109132;28;19969;-71
2021/09/03 08:45:45;;;;;;;;;;;32.60;31.70;;;;;;5091009;28;19953;-71
2021/09/03 08:48:10;;;;;;;;;;;32.50;32.80;;;;;;5109266;28;20371;-71
2021/09/03 08:50:36;;;;;;;;;;;32.50;32.00;;;;;;5109153;28;19980;-72
2021/09/03 08:53:01;;;;;;;;;;;32.10;31.70;;;;;;5109142;28;19918;-71
2021/09/03 08:55:27;;;;;;;;;;;31.40;32.10;;;;;;5090804;28;19912;-71
2021/09/03 08:57:52;;;;;;;;;;;31.10;33.40;;;;;;5109072;28;20003;-71
2021/09/03 09:00:23;;;;;;;;;;;31.10;33.10;;;;;;5109243;28;20301;-71
2021/09/03 09:03:04;;;;;;;;;;;31.50;33.80;;;;;;5109076;28;19907;-71
2021/09/03 09:05:44;;;;;;;;;;;31.90;33.60;;;;;;5109186;28;19907;-71
2021/09/03 09:08:10;;;;;;;;;;;31.40;33.00;;;;;;5113101;28;19960;-71
2021/09/03 09:10:36;;;;;;;;;;;30.60;33.20;;;;;;5113173;28;19965;-71
2021/09/03 09:13:12;;;;;;;;;;;30.20;34.80;;;;;;5095046;28;20006;-71
2021/09/03 09:15:37;;;;;;;;;;;30.30;34.30;;;;;;5113262;28;19916;-71
2021/09/03 09:18:03;;;;;;;;;;;29.80;34.20;;;;;;5113037;28;19904;-71
2021/09/03 09:20:28;;;;;;;;;;;29.10;35.70;;;;;;5113078;28;19915;-70
2021/09/03 09:22:58;;;;;;;;;;;28.50;36.70;;;;;;5113020;28;19904;-71
2021/09/03 09:25:23;;;;;;;;;;;28.70;36.40;;;;;;5112535;28;19911;-70
2021/09/03 09:27:49;;;;;;;;;;;29.50;36.20;;;;;;5112911;28;19923;-71
2021/09/03 09:30:20;;;;;;;;;;;30.20;35.50;;;;;;5112822;28;19980;-71
2021/09/03 09:33:04;;;;;;;;;;;30.50;34.00;;;;;;5112833;28;19919;-71
2021/09/03 09:35:30;;;;;;;;;;;30.70;34.30;;;;;;5112737;28;19915;-71
2021/09/03 09:37:56;;;;;;;;;;;31.30;33.10;;;;;;5112598;28;19903;-71
2021/09/03 09:40:22;;;;;;;;;;;31.40;33.00;;;;;;5094330;28;19907;-71
2021/09/03 09:42:47;;;;;;;;;;;31.70;34.00;;;;;;5112623;28;20303;-71
2021/09/03 09:45:14;;;;;;;;;;;32.20;32.60;;;;;;5112135;28;19939;-71
2021/09/03 09:47:42;;;;;;;;;;;32.30;31.70;;;;;;5112602;28;19971;-71
2021/09/03 09:50:27;;;;;;;;;;;31.90;31.50;;;;;;5094169;28;20010;-71
2021/09/03 09:52:53;;;;;;;;;;;31.50;31.80;;;;;;5112494;28;20482;-70
2021/09/03 09:55:18;;;;;;;;;;;30.20;33.50;;;;;;5112112;28;19914;-71
2021/09/03 09:57:46;;;;;;;;;;;30.50;34.00;;;;;;5112255;28;19907;-71
2021/09/03 10:00:12;;;;;;;;;;;30.90;33.60;;;;;;5112374;28;19912;-71
2021/09/03 10:02:38;;;;;;;;;;;31.40;33.00;;;;;;5112177;28;20410;-70
2021/09/03 10:05:04;;;;;;;;;;;31.80;32.90;;;;;;5111950;28;19958;-72
2021/09/03 10:07:30;;;;;;;;;;;31.20;32.70;;;;;;5094050;28;19925;-71
2021/09/03 10:09:56;;;;;;;;;;;30.30;34.20;;;;;;5112037;28;20375;-70
2021/09/03 10:12:22;;;;;;;;;;;30.20;34.80;;;;;;5112037;28;19920;-71
2021/09/03 10:14:49;;;;;;;;;;;30.10;34.70;;;;;;5111898;28;19912;-71
2021/09/03 10:17:15;;;;;;;;;;;29.60;34.90;;;;;;5111592;28;20006;-69
2021/09/03 10:19:41;;;;;;;;;;;29.00;36.70;;;;;;5110945;28;19994;-70
2021/09/03 10:22:08;;;;;;;;;;;29.30;37.40;;;;;;5112061;28;19939;-70
2021/09/03 10:24:38;;;;;;;;;;;29.40;35.90;;;;;;5111803;28;19998;-71
2021/09/03 10:27:04;;;;;;;;;;;29.20;35.10;;;;;;5111352;28;19919;-70
2021/09/03 10:29:37;;;;;;;;;;;28.80;36.20;;;;;;5111902;28;19904;-71
2021/09/03 10:32:06;;;;;;;;;;;28.70;36.70;;;;;;5111694;28;19916;-70
2021/09/03 10:37:15;;;;;;;;;;;28.00;37.60;;;;;;5111292;28;19911;-70
2021/09/03 10:39:52;;;;;;;;;;;27.50;38.70;;;;;;5111584;28;20364;-70
2021/09/03 10:45:09;;;;;;;;;;;27.50;38.70;;;;;;5111278;28;19907;-70
2021/09/03 10:47:35;;;;;;;;;;;27.60;38.00;;;;;;5093472;28;19914;-70
2021/09/03 10:50:11;;;;;;;;;;;27.60;38.10;;;;;;5092991;28;20286;-70
2021/09/03 10:52:37;;;;;;;;;;;27.60;39.20;;;;;;5086671;28;20310;-70
2021/09/03 10:55:06;;;;;;;;;;;27.50;38.20;;;;;;5111023;28;20026;-70
2021/09/03 10:57:52;;;;;;;;;;;27.50;39.10;;;;;;5093361;28;19968;-70
2021/09/03 11:00:17;;;;;;;;;;;27.40;39.70;;;;;;5110820;28;19915;-70
2021/09/03 11:02:43;;;;;;;;;;;27.50;39.90;;;;;;5110957;28;19908;-70
2021/09/03 11:05:09;;;;;;;;;;;27.60;40.60;;;;;;5092507;28;19909;-70
2021/09/03 11:07:42;;;;;;;;;;;27.70;40.40;;;;;;5111039;28;19947;-70
2021/09/03 11:10:15;;;;;;;;;;;27.60;39.10;;;;;;5110957;28;19911;-71
2021/09/03 11:12:47;;;;;;;;;;;27.50;39.60;;;;;;5110983;28;20301;-70
2021/09/03 11:15:14;;;;;;;;;;;27.60;39.20;;;;;;5110752;28;20011;-70
2021/09/03 11:17:39;;;;;;;;;;;27.60;39.40;;;;;;5110878;28;19904;-70
2021/09/03 11:20:05;;;;;;;;;;;27.20;39.30;;;;;;5092357;28;19907;-71
2021/09/03 11:22:32;;;;;;;;;;;26.90;39.40;;;;;;5110657;28;20052;-71
2021/09/03 11:25:03;;;;;;;;;;;26.70;39.60;;;;;;5110431;28;20052;-71
2021/09/03 11:27:31;;;;;;;;;;;26.40;40.50;;;;;;5110286;28;19926;-70
2021/09/03 11:30:00;;;;;;;;;;;26.30;42.00;;;;;;5091807;28;19957;-71
2021/09/03 11:32:27;;;;;;;;;;;26.20;41.60;;;;;;5110401;28;19943;-71
2021/09/03 11:34:52;;;;;;;;;;;26.20;41.40;;;;;;5110399;28;19907;-70
2021/09/03 11:37:23;;;;;;;;;;;25.90;42.10;;;;;;5092250;28;19914;-70
2021/09/03 11:39:50;;;;;;;;;;;25.80;42.30;;;;;;5110250;28;20046;-70
2021/09/03 11:42:20;;;;;;;;;;;25.60;42.50;;;;;;5110438;28;20448;-71
2021/09/03 11:44:53;;;;;;;;;;;25.60;42.70;;;;;;5110013;28;19904;-70
2021/09/03 11:47:26;;;;;;;;;;;25.60;41.50;;;;;;5109999;28;20364;-69
2021/09/03 11:49:51;;;;;;;;;;;25.60;42.40;;;;;;5110131;28;19976;-69
2021/09/03 11:52:23;;;;;;;;;;;25.70;42.20;;;;;;5109998;28;19966;-69
2021/09/03 11:54:52;;;;;;;;;;;25.60;41.20;;;;;;5091539;28;19904;-70
2021/09/03 11:57:18;;;;;;;;;;;25.60;42.00;;;;;;5109794;28;19912;-70
2021/09/03 11:59:52;;;;;;;;;;;25.80;42.30;;;;;;5109880;28;19914;-70
2021/09/03 12:02:18;;;;;;;;;;;26.20;41.70;;;;;;5091447;28;20334;-71
2021/09/03 12:04:43;;;;;;;;;;;26.50;41.30;;;;;;5091297;28;19908;-70
2021/09/03 12:07:15;;;;;;;;;;;26.80;41.30;;;;;;5109701;28;20368;-70
2021/09/03 12:09:43;;;;;;;;;;;27.00;40.90;;;;;;5109824;28;19948;-70
2021/09/03 12:12:09;;;;;;;;;;;27.10;39.70;;;;;;5109649;28;19915;-71
2021/09/03 12:14:34;;;;;;;;;;;27.00;39.50;;;;;;5109662;28;19914;-70
2021/09/03 12:17:01;;;;;;;;;;;26.80;39.90;;;;;;5109772;28;19915;-71
2021/09/03 12:19:26;;;;;;;;;;;26.50;39.80;;;;;;5109520;28;19907;-70
2021/09/03 12:21:52;;;;;;;;;;;26.50;40.10;;;;;;5109771;28;20022;-71
2021/09/03 12:24:17;;;;;;;;;;;26.60;38.90;;;;;;5109711;28;19915;-70
2021/09/03 12:26:50;;;;;;;;;;;26.80;39.90;;;;;;5109398;28;20438;-71
2021/09/03 12:29:17;;;;;;;;;;;27.00;39.60;;;;;;5109541;28;19915;-69
2021/09/03 12:31:49;;;;;;;;;;;27.10;39.40;;;;;;5109394;28;20010;-70
2021/09/03 12:34:15;;;;;;;;;;;27.10;39.70;;;;;;5109427;28;19907;-70
2021/09/03 12:36:41;;;;;;;;;;;26.90;39.20;;;;;;5109404;28;20802;-70
2021/09/03 12:39:11;;;;;;;;;;;26.50;39.70;;;;;;5109183;28;19907;-70
2021/09/03 12:41:40;;;;;;;;;;;26.20;40.80;;;;;;5090426;28;20363;-70
2021/09/03 12:44:08;;;;;;;;;;;26.00;40.60;;;;;;5109297;28;20212;-70
2021/09/03 12:46:35;;;;;;;;;;;25.70;41.60;;;;;;5109141;28;19914;-70
2021/09/03 12:49:07;;;;;;;;;;;25.50;41.30;;;;;;5109234;28;19915;-69
2021/09/03 12:51:34;;;;;;;;;;;25.40;41.70;;;;;;5109238;28;20306;-69
2021/09/03 12:53:59;;;;;;;;;;;25.50;42.70;;;;;;5109105;28;19912;-68
2021/09/03 12:56:25;;;;;;;;;;;25.70;42.60;;;;;;5109169;28;19908;-69
2021/09/03 12:58:50;;;;;;;;;;;25.90;41.50;;;;;;5109071;28;19907;-68
2021/09/03 13:01:16;;;;;;;;;;;26.20;40.40;;;;;;5108923;28;19911;-69
2021/09/03 13:03:44;;;;;;;;;;;26.20;41.40;;;;;;5108966;28;20481;-69
2021/09/03 13:06:10;;;;;;;;;;;26.30;40.30;;;;;;5109094;28;19918;-69
2021/09/03 13:08:37;;;;;;;;;;;26.40;40.70;;;;;;5109032;28;20436;-69
2021/09/03 13:11:02;;;;;;;;;;;26.50;41.00;;;;;;5090827;28;19911;-70
2021/09/03 13:13:28;;;;;;;;;;;26.60;40.50;;;;;;5108660;28;20449;-70
2021/09/03 13:15:53;;;;;;;;;;;26.70;40.90;;;;;;5108888;28;19908;-70
2021/09/03 13:18:19;;;;;;;;;;;26.60;40.30;;;;;;5108912;28;19915;-69
2021/09/03 13:20:44;;;;;;;;;;;26.40;40.60;;;;;;5109064;28;19910;-71
2021/09/03 13:23:10;;;;;;;;;;;26.30;39.90;;;;;;5108638;28;19914;-70
2021/09/03 13:25:35;;;;;;;;;;;26.20;40.10;;;;;;5108039;28;19907;-70
2021/09/03 13:28:01;;;;;;;;;;;26.30;40.80;;;;;;5090350;28;20400;-69
2021/09/03 13:30:26;;;;;;;;;;;26.20;41.50;;;;;;5090399;28;19915;-69
2021/09/03 13:32:52;;;;;;;;;;;26.30;41.50;;;;;;5108615;28;19915;-69
2021/09/03 13:35:17;;;;;;;;;;;26.20;41.30;;;;;;5108028;28;19912;-70
2021/09/03 13:37:43;;;;;;;;;;;26.00;41.30;;;;;;5108691;28;19904;-70
2021/09/03 13:40:09;;;;;;;;;;;25.90;41.70;;;;;;5108949;28;19911;-70
2021/09/03 13:42:35;;;;;;;;;;;25.60;41.50;;;;;;5108761;28;19960;-70
2021/09/03 13:45:00;;;;;;;;;;;25.40;42.60;;;;;;5108791;28;20014;-69
2021/09/03 13:47:26;;;;;;;;;;;25.20;43.40;;;;;;5108737;28;19908;-70
2021/09/03 13:49:51;;;;;;;;;;;25.00;44.20;;;;;;5108733;28;20291;-69
2021/09/03 13:52:17;;;;;;;;;;;25.00;44.10;;;;;;5090946;28;20000;-68
2021/09/03 13:54:43;;;;;;;;;;;25.00;43.70;;;;;;5112327;28;19912;-69
2021/09/03 13:57:08;;;;;;;;;;;25.10;44.60;;;;;;5112144;28;20431;-69
2021/09/03 13:59:34;;;;;;;;;;;25.20;44.10;;;;;;5112432;28;19915;-69
2021/09/03 14:01:59;;;;;;;;;;;25.20;43.90;;;;;;5093951;28;19907;-70
2021/09/03 14:04:25;;;;;;;;;;;25.20;44.40;;;;;;5112143;28;20319;-69
2021/09/03 14:06:50;;;;;;;;;;;25.00;44.60;;;;;;5112400;28;20006;-69
2021/09/03 14:09:16;;;;;;;;;;;24.90;44.60;;;;;;5112037;28;20010;-69
2021/09/03 14:11:44;;;;;;;;;;;24.70;44.30;;;;;;5112034;28;19955;-69
2021/09/03 14:14:10;;;;;;;;;;;24.60;44.70;;;;;;5093694;28;19965;-70
2021/09/03 14:16:36;;;;;;;;;;;24.60;44.90;;;;;;5112321;28;19908;-69
2021/09/03 14:19:02;;;;;;;;;;;24.70;45.30;;;;;;5111799;28;19914;-69